Thursday, January 17, 2019, 5:02 AM CST
Back to Local

KUGN, Chicago/waukegan Regional

Location: Waukegan, IL, United States Lat: 42.417
Local Time: 5:02 AM CST (11:02 GMT) Lon: -87.867
Time Zone: US/Central Elev: 728 ft

Show me the last for .
Show Decoded

2019-01-17 04:18 METAR KUGN 171018Z AUTO 11004KT 10SM OVC030 M02/M06 A3015 RMK AO2 T10171061 $ =
2019-01-17 03:55 METAR KUGN 170955Z AUTO 11005KT 10SM OVC029 M02/M07 A3016 RMK AO2 SLP226
                 T10171067 $ =
2019-01-17 03:06 METAR KUGN 170906Z AUTO 10006KT 10SM OVC029 M02/M07 A3018 RMK AO2 T10171067 $ =
2019-01-17 02:55 METAR KUGN 170855Z AUTO 10005KT 10SM OVC030 M02/M07 A3019 RMK AO2 SLP236
                 T10171067 58017 $ =
2019-01-17 01:55 METAR KUGN 170755Z AUTO 09005KT 10SM OVC032 M02/M07 A3021 RMK AO2 SLP243
                 T10171067 $ =
2019-01-17 00:55 METAR KUGN 170655Z AUTO 09004KT 10SM FEW026 BKN120 M02/M08 A3022 RMK AO2 SLP248
                 T10221078 $ =
2019-01-16 23:55 METAR KUGN 170555Z AUTO 09004KT 10SM CLR M03/M08 A3024 RMK AO2 SLP254 T10281078
                 11022 21039 400111039 58007 $ =
2019-01-16 22:55 METAR KUGN 170455Z AUTO 09006KT 10SM FEW023 M03/M08 A3025 RMK AO2 SLP257
                 T10281078 $ =
2019-01-16 22:36 METAR KUGN 170436Z AUTO 08007KT 10SM SCT023 M03/M08 A3025 RMK AO2 T10281078 $ =
2019-01-16 21:55 METAR KUGN 170355Z AUTO 09008KT 10SM BKN023 M03/M08 A3025 RMK AO2 SLP259
                 T10281078 $ =
2019-01-16 21:50 METAR KUGN 170350Z AUTO 09008KT 10SM BKN023 M03/M08 A3026 RMK AO2 $ =
2019-01-16 20:55 METAR KUGN 170255Z AUTO 09005KT 10SM FEW024 M03/M08 A3027 RMK AO2 SLP263
                 T10281083 58005 $ =
2019-01-16 19:55 METAR KUGN 170155Z 07006KT 10SM FEW026 M03/M08 A3027 RMK AO2 SLP267 LAST
                 T10331083 =
2019-01-16 18:55 METAR KUGN 170055Z 06003KT 10SM FEW029 M04/M09 A3029 RMK AO2 SLP271 T10391089 =
2019-01-16 17:55 METAR KUGN 162355Z 05005KT 10SM OVC030 M03/M09 A3028 RMK AO2 SLP269 T10281089
                 11017 21028 53007 =
2019-01-16 16:55 METAR KUGN 162255Z 06008KT 10SM OVC032 M03/M09 A3026 RMK AO2 SLP262 T10281089 =
2019-01-16 15:55 METAR KUGN 162155Z 04008KT 10SM OVC031 M02/M08 A3026 RMK AO2 SLP261 T10221083 =
2019-01-16 14:55 METAR KUGN 162055Z 02009KT 10SM OVC030 M02/M08 A3026 RMK AO2 SLP260 T10221078
                 53002 =
2019-01-16 13:55 METAR KUGN 161955Z COR 02010G16KT 10SM FEW021 OVC030 M02/M07 A3025 RMK AO2
                 SLP256 T10221072 =
2019-01-16 12:55 METAR KUGN 161855Z 03010KT 10SM SCT019 OVC030 M02/M07 A3026 RMK AO2 SLP258
                 T10221072 =
2019-01-16 12:50 METAR KUGN 161850Z 02008KT 10SM OVC032 M02/M07 A3025 RMK AO2 =
2019-01-16 12:02 METAR KUGN 161802Z 01008G17KT 10SM BKN023 OVC032 M02/M07 A3026 RMK AO2 T10171067
                 =
2019-01-16 11:55 METAR KUGN 161755Z COR 03011G17KT 10SM BKN023 OVC032 M02/M07 A3026 RMK AO2
                 SLP261 T10171067 10000 21017 51013 =
2019-01-16 11:03 METAR KUGN 161703Z 01010G16KT 10SM OVC023 M01/M07 A3026 RMK AO2 T10111067 =
2019-01-16 10:55 METAR KUGN 161655Z COR 02009G19KT 10SM OVC023 M01/M06 A3026 RMK AO2 SLP258
                 T10111061 =
2019-01-16 10:42 METAR KUGN 161642Z 01010G17KT 10SM OVC028 M01/M07 A3026 RMK AO2 T10111067 =
2019-01-16 09:55 METAR KUGN 161555Z COR 34003KT 10SM BKN035 M01/M08 A3025 RMK AO2 SLP256
                 T10061083 =
2019-01-16 08:55 METAR KUGN 161455Z COR 34003KT 10SM BKN033 M01/M08 A3023 RMK AO2 SLP248
                 T10111083 53025 =
2019-01-16 07:55 METAR KUGN 161355Z COR 33004KT 10SM OVC031 M01/M08 A3020 RMK AO2 SLP240
                 T10111083 =
2019-01-16 07:47 METAR KUGN 161347Z 33005KT 10SM OVC031 M02/M08 A3020 RMK AO2 T10171083 =
2019-01-16 06:55 METAR KUGN 161255Z 36005KT 10SM OVC028 M01/M08 A3017 RMK AO2 SLP231 T10111078 =
2019-01-16 05:55 METAR KUGN 161155Z 34007KT 10SM OVC028 M01/M07 A3015 RMK AO2 SLP223 T10061072
                 10011 21006 53027 =

Support USWX by starting your Amazon purchase here.